sensor_id;sensor_type;location;lat;lon;timestamp;temperature;humidity
65058;HTU21D;51644;51.068;5.860;2022-09-09T00:02:20;17.06;85.17
65058;HTU21D;51644;51.068;5.860;2022-09-09T00:03:26;17.05;85.19
65058;HTU21D;51644;51.068;5.860;2022-09-09T00:04:28;17.02;85.27
65058;HTU21D;51644;51.068;5.860;2022-09-09T00:07:05;16.98;85.35
65058;HTU21D;51644;51.068;5.860;2022-09-09T00:08:04;16.94;85.42
65058;HTU21D;51644;51.068;5.860;2022-09-09T00:09:14;16.92;85.49
65058;HTU21D;51644;51.068;5.860;2022-09-09T00:10:28;16.91;85.55
65058;HTU21D;51644;51.068;5.860;2022-09-09T00:11:43;16.90;85.58
65058;HTU21D;51644;51.068;5.860;2022-09-09T00:14:54;16.88;85.59
65058;HTU21D;51644;51.068;5.860;2022-09-09T00:15:57;16.88;85.63
65058;HTU21D;51644;51.068;5.860;2022-09-09T00:17:02;16.88;85.64
65058;HTU21D;51644;51.068;5.860;2022-09-09T00:18:27;16.89;85.61
65058;HTU21D;51644;51.068;5.860;2022-09-09T00:21:00;16.89;85.45
65058;HTU21D;51644;51.068;5.860;2022-09-09T00:22:17;16.88;85.42
65058;HTU21D;51644;51.068;5.860;2022-09-09T00:23:27;16.86;85.48
65058;HTU21D;51644;51.068;5.860;2022-09-09T00:24:37;16.86;85.62
65058;HTU21D;51644;51.068;5.860;2022-09-09T00:27:16;16.86;85.76
65058;HTU21D;51644;51.068;5.860;2022-09-09T00:28:20;16.87;85.75
65058;HTU21D;51644;51.068;5.860;2022-09-09T00:30:34;16.89;85.74
65058;HTU21D;51644;51.068;5.860;2022-09-09T00:31:34;16.88;85.77
65058;HTU21D;51644;51.068;5.860;2022-09-09T00:32:33;16.87;85.77
65058;HTU21D;51644;51.068;5.860;2022-09-09T00:33:34;16.86;85.82
65058;HTU21D;51644;51.068;5.860;2022-09-09T00:34:33;16.85;85.89
65058;HTU21D;51644;51.068;5.860;2022-09-09T00:35:38;16.86;85.88
65058;HTU21D;51644;51.068;5.860;2022-09-09T00:36:41;16.87;85.89
65058;HTU21D;51644;51.068;5.860;2022-09-09T00:37:43;16.86;85.80
65058;HTU21D;51644;51.068;5.860;2022-09-09T00:38:51;16.86;85.82
65058;HTU21D;51644;51.068;5.860;2022-09-09T00:39:53;16.86;85.80
65058;HTU21D;51644;51.068;5.860;2022-09-09T00:41:11;16.86;85.70
65058;HTU21D;51644;51.068;5.860;2022-09-09T00:42:45;16.88;85.67
65058;HTU21D;51644;51.068;5.860;2022-09-09T00:43:40;16.86;85.60
65058;HTU21D;51644;51.068;5.860;2022-09-09T00:46:46;16.82;85.77
65058;HTU21D;51644;51.068;5.860;2022-09-09T00:47:52;16.79;85.82
65058;HTU21D;51644;51.068;5.860;2022-09-09T00:56:11;16.75;85.70
65058;HTU21D;51644;51.068;5.860;2022-09-09T00:57:19;16.76;85.64
65058;HTU21D;51644;51.068;5.860;2022-09-09T00:58:21;16.76;85.54
65058;HTU21D;51644;51.068;5.860;2022-09-09T00:59:47;16.75;85.43
65058;HTU21D;51644;51.068;5.860;2022-09-09T01:01:08;16.75;85.42
65058;HTU21D;51644;51.068;5.860;2022-09-09T01:02:27;16.74;85.38
65058;HTU21D;51644;51.068;5.860;2022-09-09T01:04:34;16.74;85.35
65058;HTU21D;51644;51.068;5.860;2022-09-09T01:07:05;16.75;85.19
65058;HTU21D;51644;51.068;5.860;2022-09-09T01:09:56;16.71;85.20
65058;HTU21D;51644;51.068;5.860;2022-09-09T01:10:56;16.71;85.18
65058;HTU21D;51644;51.068;5.860;2022-09-09T01:12:25;16.67;85.31
65058;HTU21D;51644;51.068;5.860;2022-09-09T01:13:30;16.65;85.33
65058;HTU21D;51644;51.068;5.860;2022-09-09T01:15:34;16.65;85.42
65058;HTU21D;51644;51.068;5.860;2022-09-09T01:16:34;16.65;85.39
65058;HTU21D;51644;51.068;5.860;2022-09-09T01:17:58;16.66;85.38
65058;HTU21D;51644;51.068;5.860;2022-09-09T01:19:01;16.65;85.32
65058;HTU21D;51644;51.068;5.860;2022-09-09T01:21:53;16.65;85.29
65058;HTU21D;51644;51.068;5.860;2022-09-09T01:26:34;16.62;85.32
65058;HTU21D;51644;51.068;5.860;2022-09-09T01:27:40;16.61;85.34
65058;HTU21D;51644;51.068;5.860;2022-09-09T01:28:43;16.61;85.35
65058;HTU21D;51644;51.068;5.860;2022-09-09T01:29:46;16.60;85.36
65058;HTU21D;51644;51.068;5.860;2022-09-09T01:30:46;16.59;85.42
65058;HTU21D;51644;51.068;5.860;2022-09-09T01:31:59;16.59;85.45
65058;HTU21D;51644;51.068;5.860;2022-09-09T01:32:58;16.59;85.40
65058;HTU21D;51644;51.068;5.860;2022-09-09T01:33:58;16.60;85.42
65058;HTU21D;51644;51.068;5.860;2022-09-09T01:34:57;16.60;85.41
65058;HTU21D;51644;51.068;5.860;2022-09-09T01:36:07;16.61;85.37
65058;HTU21D;51644;51.068;5.860;2022-09-09T01:37:13;16.62;85.34
65058;HTU21D;51644;51.068;5.860;2022-09-09T01:38:14;16.61;85.38
65058;HTU21D;51644;51.068;5.860;2022-09-09T01:39:14;16.61;85.47
65058;HTU21D;51644;51.068;5.860;2022-09-09T01:40:32;16.62;85.41
65058;HTU21D;51644;51.068;5.860;2022-09-09T01:41:31;16.59;85.47
65058;HTU21D;51644;51.068;5.860;2022-09-09T01:42:35;16.58;85.48
65058;HTU21D;51644;51.068;5.860;2022-09-09T01:43:34;16.59;85.51
65058;HTU21D;51644;51.068;5.860;2022-09-09T01:44:34;16.58;85.46
65058;HTU21D;51644;51.068;5.860;2022-09-09T01:45:34;16.55;85.59
65058;HTU21D;51644;51.068;5.860;2022-09-09T01:46:33;16.54;85.69
65058;HTU21D;51644;51.068;5.860;2022-09-09T01:47:34;16.55;85.62
65058;HTU21D;51644;51.068;5.860;2022-09-09T01:48:42;16.48;85.98
65058;HTU21D;51644;51.068;5.860;2022-09-09T01:49:44;16.49;85.87
65058;HTU21D;51644;51.068;5.860;2022-09-09T01:50:51;16.50;85.90
65058;HTU21D;51644;51.068;5.860;2022-09-09T01:51:55;16.50;85.91
65058;HTU21D;51644;51.068;5.860;2022-09-09T01:53:03;16.50;85.95
65058;HTU21D;51644;51.068;5.860;2022-09-09T01:54:05;16.51;85.90
65058;HTU21D;51644;51.068;5.860;2022-09-09T01:55:08;16.51;85.86
65058;HTU21D;51644;51.068;5.860;2022-09-09T01:56:30;16.51;85.92
65058;HTU21D;51644;51.068;5.860;2022-09-09T01:57:48;16.49;85.93
65058;HTU21D;51644;51.068;5.860;2022-09-09T02:00:10;16.51;86.02
65058;HTU21D;51644;51.068;5.860;2022-09-09T02:04:41;16.50;86.12
65058;HTU21D;51644;51.068;5.860;2022-09-09T02:06:22;16.47;86.22
65058;HTU21D;51644;51.068;5.860;2022-09-09T02:07:39;16.49;86.20
65058;HTU21D;51644;51.068;5.860;2022-09-09T02:08:50;16.48;86.20
65058;HTU21D;51644;51.068;5.860;2022-09-09T02:09:59;16.50;86.12
65058;HTU21D;51644;51.068;5.860;2022-09-09T02:11:01;16.49;86.23
65058;HTU21D;51644;51.068;5.860;2022-09-09T02:12:15;16.47;86.43
65058;HTU21D;51644;51.068;5.860;2022-09-09T02:13:25;16.50;86.28
65058;HTU21D;51644;51.068;5.860;2022-09-09T02:14:30;16.52;86.29
65058;HTU21D;51644;51.068;5.860;2022-09-09T02:15:52;16.51;86.27
65058;HTU21D;51644;51.068;5.860;2022-09-09T02:16:57;16.54;86.22
65058;HTU21D;51644;51.068;5.860;2022-09-09T02:18:10;16.54;86.32
65058;HTU21D;51644;51.068;5.860;2022-09-09T02:19:23;16.57;86.25
65058;HTU21D;51644;51.068;5.860;2022-09-09T02:20:43;16.57;86.19
65058;HTU21D;51644;51.068;5.860;2022-09-09T02:21:46;16.54;86.24
65058;HTU21D;51644;51.068;5.860;2022-09-09T02:22:50;16.55;86.26
65058;HTU21D;51644;51.068;5.860;2022-09-09T02:23:52;16.55;86.32
65058;HTU21D;51644;51.068;5.860;2022-09-09T02:24:56;16.52;86.30
65058;HTU21D;51644;51.068;5.860;2022-09-09T02:26:00;16.56;86.33
65058;HTU21D;51644;51.068;5.860;2022-09-09T02:27:03;16.56;86.27
65058;HTU21D;51644;51.068;5.860;2022-09-09T02:28:07;16.56;86.31
65058;HTU21D;51644;51.068;5.860;2022-09-09T02:29:14;16.57;86.26
65058;HTU21D;51644;51.068;5.860;2022-09-09T02:30:15;16.56;86.25
65058;HTU21D;51644;51.068;5.860;2022-09-09T02:31:22;16.57;86.21
65058;HTU21D;51644;51.068;5.860;2022-09-09T02:32:25;16.59;86.21
65058;HTU21D;51644;51.068;5.860;2022-09-09T02:33:38;16.58;86.23
65058;HTU21D;51644;51.068;5.860;2022-09-09T02:34:49;16.58;86.20
65058;HTU21D;51644;51.068;5.860;2022-09-09T02:35:51;16.57;86.24
65058;HTU21D;51644;51.068;5.860;2022-09-09T02:36:55;16.57;86.24
65058;HTU21D;51644;51.068;5.860;2022-09-09T02:37:59;16.57;86.22
65058;HTU21D;51644;51.068;5.860;2022-09-09T02:39:01;16.59;86.19
65058;HTU21D;51644;51.068;5.860;2022-09-09T02:40:05;16.60;86.18
65058;HTU21D;51644;51.068;5.860;2022-09-09T02:41:05;16.60;86.15
65058;HTU21D;51644;51.068;5.860;2022-09-09T02:42:05;16.61;86.11
65058;HTU21D;51644;51.068;5.860;2022-09-09T02:43:05;16.58;86.31
65058;HTU21D;51644;51.068;5.860;2022-09-09T02:44:15;16.58;86.27
65058;HTU21D;51644;51.068;5.860;2022-09-09T02:45:23;16.59;86.23
65058;HTU21D;51644;51.068;5.860;2022-09-09T02:46:57;16.60;86.21
65058;HTU21D;51644;51.068;5.860;2022-09-09T02:48:17;16.61;86.16
65058;HTU21D;51644;51.068;5.860;2022-09-09T02:49:33;16.64;86.13
65058;HTU21D;51644;51.068;5.860;2022-09-09T02:50:49;16.63;86.23
65058;HTU21D;51644;51.068;5.860;2022-09-09T02:52:04;16.63;86.25
65058;HTU21D;51644;51.068;5.860;2022-09-09T02:53:24;16.69;86.13
65058;HTU21D;51644;51.068;5.860;2022-09-09T02:54:32;16.71;86.03
65058;HTU21D;51644;51.068;5.860;2022-09-09T02:55:48;16.74;85.94
65058;HTU21D;51644;51.068;5.860;2022-09-09T02:56:53;16.73;85.95
65058;HTU21D;51644;51.068;5.860;2022-09-09T02:57:57;16.76;85.83
65058;HTU21D;51644;51.068;5.860;2022-09-09T02:58:58;16.74;86.00
65058;HTU21D;51644;51.068;5.860;2022-09-09T02:59:58;16.78;85.86
65058;HTU21D;51644;51.068;5.860;2022-09-09T03:00:58;16.77;85.89
65058;HTU21D;51644;51.068;5.860;2022-09-09T03:01:59;16.80;85.82
65058;HTU21D;51644;51.068;5.860;2022-09-09T03:02:58;16.81;85.67
65058;HTU21D;51644;51.068;5.860;2022-09-09T03:03:57;16.84;85.58
65058;HTU21D;51644;51.068;5.860;2022-09-09T03:04:56;16.84;85.67
65058;HTU21D;51644;51.068;5.860;2022-09-09T03:05:57;16.86;85.43
65058;HTU21D;51644;51.068;5.860;2022-09-09T03:07:00;16.86;85.43
65058;HTU21D;51644;51.068;5.860;2022-09-09T03:07:58;16.86;85.41
65058;HTU21D;51644;51.068;5.860;2022-09-09T03:08:57;16.86;85.51
65058;HTU21D;51644;51.068;5.860;2022-09-09T03:09:59;16.85;85.56
65058;HTU21D;51644;51.068;5.860;2022-09-09T03:10:59;16.84;85.58
65058;HTU21D;51644;51.068;5.860;2022-09-09T03:12:07;16.84;85.57
65058;HTU21D;51644;51.068;5.860;2022-09-09T03:13:07;16.81;85.61
65058;HTU21D;51644;51.068;5.860;2022-09-09T03:14:10;16.84;85.57
65058;HTU21D;51644;51.068;5.860;2022-09-09T03:15:12;16.84;85.56
65058;HTU21D;51644;51.068;5.860;2022-09-09T03:16:15;16.80;85.72
65058;HTU21D;51644;51.068;5.860;2022-09-09T03:17:17;16.80;85.57
65058;HTU21D;51644;51.068;5.860;2022-09-09T03:18:22;16.79;85.64
65058;HTU21D;51644;51.068;5.860;2022-09-09T03:19:24;16.77;85.70
65058;HTU21D;51644;51.068;5.860;2022-09-09T03:20:24;16.75;85.77
65058;HTU21D;51644;51.068;5.860;2022-09-09T03:21:27;16.77;85.72
65058;HTU21D;51644;51.068;5.860;2022-09-09T03:22:50;16.73;85.84
65058;HTU21D;51644;51.068;5.860;2022-09-09T03:23:48;16.73;85.82
65058;HTU21D;51644;51.068;5.860;2022-09-09T03:25:23;16.73;85.84
65058;HTU21D;51644;51.068;5.860;2022-09-09T03:26:25;16.74;85.72
65058;HTU21D;51644;51.068;5.860;2022-09-09T03:27:24;16.75;85.81
65058;HTU21D;51644;51.068;5.860;2022-09-09T03:28:23;16.77;85.72
65058;HTU21D;51644;51.068;5.860;2022-09-09T03:29:23;16.79;85.66
65058;HTU21D;51644;51.068;5.860;2022-09-09T03:30:26;16.78;85.69
65058;HTU21D;51644;51.068;5.860;2022-09-09T03:31:27;16.81;85.55
65058;HTU21D;51644;51.068;5.860;2022-09-09T03:32:31;16.84;85.49
65058;HTU21D;51644;51.068;5.860;2022-09-09T03:33:30;16.84;85.53
65058;HTU21D;51644;51.068;5.860;2022-09-09T03:34:29;16.86;85.42
65058;HTU21D;51644;51.068;5.860;2022-09-09T03:35:30;16.85;85.52
65058;HTU21D;51644;51.068;5.860;2022-09-09T03:36:29;16.86;85.51
65058;HTU21D;51644;51.068;5.860;2022-09-09T03:37:28;16.88;85.42
65058;HTU21D;51644;51.068;5.860;2022-09-09T03:38:27;16.90;85.30
65058;HTU21D;51644;51.068;5.860;2022-09-09T03:39:26;16.93;85.19
65058;HTU21D;51644;51.068;5.860;2022-09-09T03:40:25;16.92;85.16
65058;HTU21D;51644;51.068;5.860;2022-09-09T03:41:26;16.91;85.26
65058;HTU21D;51644;51.068;5.860;2022-09-09T03:42:32;16.91;85.22
65058;HTU21D;51644;51.068;5.860;2022-09-09T03:43:32;16.90;85.18
65058;HTU21D;51644;51.068;5.860;2022-09-09T03:44:31;16.91;85.17
65058;HTU21D;51644;51.068;5.860;2022-09-09T03:45:29;16.90;85.17
65058;HTU21D;51644;51.068;5.860;2022-09-09T03:46:29;16.90;85.16
65058;HTU21D;51644;51.068;5.860;2022-09-09T03:47:27;16.90;85.13
65058;HTU21D;51644;51.068;5.860;2022-09-09T03:48:36;16.91;85.08
65058;HTU21D;51644;51.068;5.860;2022-09-09T03:49:36;16.89;85.09
65058;HTU21D;51644;51.068;5.860;2022-09-09T03:50:35;16.89;85.16
65058;HTU21D;51644;51.068;5.860;2022-09-09T03:51:33;16.85;85.25
65058;HTU21D;51644;51.068;5.860;2022-09-09T03:52:38;16.87;85.23
65058;HTU21D;51644;51.068;5.860;2022-09-09T03:53:40;16.88;85.16
65058;HTU21D;51644;51.068;5.860;2022-09-09T03:54:39;16.88;85.19
65058;HTU21D;51644;51.068;5.860;2022-09-09T03:55:38;16.88;85.16
65058;HTU21D;51644;51.068;5.860;2022-09-09T03:56:37;16.87;85.19
65058;HTU21D;51644;51.068;5.860;2022-09-09T03:57:35;16.88;85.13
65058;HTU21D;51644;51.068;5.860;2022-09-09T03:58:38;16.89;85.11
65058;HTU21D;51644;51.068;5.860;2022-09-09T03:59:39;16.86;85.20
65058;HTU21D;51644;51.068;5.860;2022-09-09T04:00:38;16.86;85.28
65058;HTU21D;51644;51.068;5.860;2022-09-09T04:01:53;16.86;85.30
65058;HTU21D;51644;51.068;5.860;2022-09-09T04:02:51;16.89;85.19
65058;HTU21D;51644;51.068;5.860;2022-09-09T04:03:52;16.91;85.13
65058;HTU21D;51644;51.068;5.860;2022-09-09T04:04:51;16.92;85.06
65058;HTU21D;51644;51.068;5.860;2022-09-09T04:05:56;16.92;85.09
65058;HTU21D;51644;51.068;5.860;2022-09-09T04:06:56;16.89;85.22
65058;HTU21D;51644;51.068;5.860;2022-09-09T04:07:55;16.90;85.11
65058;HTU21D;51644;51.068;5.860;2022-09-09T04:08:56;16.89;85.22
65058;HTU21D;51644;51.068;5.860;2022-09-09T04:10:18;16.92;85.02
65058;HTU21D;51644;51.068;5.860;2022-09-09T04:11:18;16.92;85.18
65058;HTU21D;51644;51.068;5.860;2022-09-09T04:12:18;16.93;85.06
65058;HTU21D;51644;51.068;5.860;2022-09-09T04:13:17;16.96;84.85
65058;HTU21D;51644;51.068;5.860;2022-09-09T04:14:17;16.98;84.79
65058;HTU21D;51644;51.068;5.860;2022-09-09T04:15:16;16.96;84.91
65058;HTU21D;51644;51.068;5.860;2022-09-09T04:16:16;17.01;84.70
65058;HTU21D;51644;51.068;5.860;2022-09-09T04:17:15;17.00;84.86
65058;HTU21D;51644;51.068;5.860;2022-09-09T04:18:15;17.01;84.80
65058;HTU21D;51644;51.068;5.860;2022-09-09T04:19:14;17.01;84.87
65058;HTU21D;51644;51.068;5.860;2022-09-09T04:20:14;17.05;84.55
65058;HTU21D;51644;51.068;5.860;2022-09-09T04:21:12;17.04;84.55
65058;HTU21D;51644;51.068;5.860;2022-09-09T04:22:12;17.08;84.61
65058;HTU21D;51644;51.068;5.860;2022-09-09T04:23:11;17.08;84.43
65058;HTU21D;51644;51.068;5.860;2022-09-09T04:24:10;17.04;84.68
65058;HTU21D;51644;51.068;5.860;2022-09-09T04:25:09;17.08;84.51
65058;HTU21D;51644;51.068;5.860;2022-09-09T04:26:08;17.10;84.36
65058;HTU21D;51644;51.068;5.860;2022-09-09T04:27:07;17.16;84.11
65058;HTU21D;51644;51.068;5.860;2022-09-09T04:28:08;17.19;83.97
65058;HTU21D;51644;51.068;5.860;2022-09-09T04:29:06;17.16;84.10
65058;HTU21D;51644;51.068;5.860;2022-09-09T04:30:06;17.20;83.94
65058;HTU21D;51644;51.068;5.860;2022-09-09T04:31:15;17.21;84.00
65058;HTU21D;51644;51.068;5.860;2022-09-09T04:32:15;17.21;83.89
65058;HTU21D;51644;51.068;5.860;2022-09-09T04:33:14;17.20;83.87
65058;HTU21D;51644;51.068;5.860;2022-09-09T04:34:13;17.20;83.82
65058;HTU21D;51644;51.068;5.860;2022-09-09T04:35:12;17.19;83.85
65058;HTU21D;51644;51.068;5.860;2022-09-09T04:36:10;17.17;84.01
65058;HTU21D;51644;51.068;5.860;2022-09-09T04:37:09;17.19;83.83
65058;HTU21D;51644;51.068;5.860;2022-09-09T04:38:08;17.22;83.77
65058;HTU21D;51644;51.068;5.860;2022-09-09T04:39:07;17.24;83.63
65058;HTU21D;51644;51.068;5.860;2022-09-09T04:40:06;17.23;83.68
65058;HTU21D;51644;51.068;5.860;2022-09-09T04:41:08;17.17;83.58
65058;HTU21D;51644;51.068;5.860;2022-09-09T04:42:09;17.14;84.07
65058;HTU21D;51644;51.068;5.860;2022-09-09T04:43:09;17.11;84.17
65058;HTU21D;51644;51.068;5.860;2022-09-09T04:44:07;17.16;84.04
65058;HTU21D;51644;51.068;5.860;2022-09-09T04:45:06;17.19;83.82
65058;HTU21D;51644;51.068;5.860;2022-09-09T04:46:06;17.18;83.86
65058;HTU21D;51644;51.068;5.860;2022-09-09T04:47:05;17.19;83.76
65058;HTU21D;51644;51.068;5.860;2022-09-09T04:48:04;17.18;83.75
65058;HTU21D;51644;51.068;5.860;2022-09-09T04:49:03;17.19;83.62
65058;HTU21D;51644;51.068;5.860;2022-09-09T04:50:04;17.20;83.63
65058;HTU21D;51644;51.068;5.860;2022-09-09T04:51:06;17.19;83.61
65058;HTU21D;51644;51.068;5.860;2022-09-09T04:52:06;17.17;83.82
65058;HTU21D;51644;51.068;5.860;2022-09-09T04:53:07;17.19;83.66
65058;HTU21D;51644;51.068;5.860;2022-09-09T04:54:08;17.19;83.60
65058;HTU21D;51644;51.068;5.860;2022-09-09T04:55:10;17.19;83.40
65058;HTU21D;51644;51.068;5.860;2022-09-09T04:56:14;17.15;83.67
65058;HTU21D;51644;51.068;5.860;2022-09-09T04:57:17;17.17;83.42
65058;HTU21D;51644;51.068;5.860;2022-09-09T04:58:16;17.16;83.46
65058;HTU21D;51644;51.068;5.860;2022-09-09T04:59:14;17.10;83.55
65058;HTU21D;51644;51.068;5.860;2022-09-09T05:00:17;17.13;83.49
65058;HTU21D;51644;51.068;5.860;2022-09-09T05:01:20;17.14;83.32
65058;HTU21D;51644;51.068;5.860;2022-09-09T05:02:21;17.13;83.29
65058;HTU21D;51644;51.068;5.860;2022-09-09T05:03:19;17.08;83.52
65058;HTU21D;51644;51.068;5.860;2022-09-09T05:04:18;17.07;83.50
65058;HTU21D;51644;51.068;5.860;2022-09-09T05:05:17;17.08;83.31
65058;HTU21D;51644;51.068;5.860;2022-09-09T05:06:20;17.08;83.37
65058;HTU21D;51644;51.068;5.860;2022-09-09T05:07:21;17.09;83.21
65058;HTU21D;51644;51.068;5.860;2022-09-09T05:08:20;17.07;83.27
65058;HTU21D;51644;51.068;5.860;2022-09-09T05:09:20;17.04;83.42
65058;HTU21D;51644;51.068;5.860;2022-09-09T05:10:19;17.05;83.40
65058;HTU21D;51644;51.068;5.860;2022-09-09T05:11:24;17.06;83.34
65058;HTU21D;51644;51.068;5.860;2022-09-09T05:12:24;17.06;83.30
65058;HTU21D;51644;51.068;5.860;2022-09-09T05:13:24;17.05;83.36
65058;HTU21D;51644;51.068;5.860;2022-09-09T05:14:22;17.04;83.32
65058;HTU21D;51644;51.068;5.860;2022-09-09T05:15:22;17.03;83.35
65058;HTU21D;51644;51.068;5.860;2022-09-09T05:16:21;17.01;83.49
65058;HTU21D;51644;51.068;5.860;2022-09-09T05:17:21;17.03;83.39
65058;HTU21D;51644;51.068;5.860;2022-09-09T05:18:20;17.01;83.39
65058;HTU21D;51644;51.068;5.860;2022-09-09T05:19:20;17.01;83.36
65058;HTU21D;51644;51.068;5.860;2022-09-09T05:20:20;16.99;83.33
65058;HTU21D;51644;51.068;5.860;2022-09-09T05:21:23;16.99;83.47
65058;HTU21D;51644;51.068;5.860;2022-09-09T05:22:22;17.02;83.37
65058;HTU21D;51644;51.068;5.860;2022-09-09T05:23:22;17.05;83.29
65058;HTU21D;51644;51.068;5.860;2022-09-09T05:24:21;17.02;83.32
65058;HTU21D;51644;51.068;5.860;2022-09-09T05:25:24;17.00;83.54
65058;HTU21D;51644;51.068;5.860;2022-09-09T05:26:26;16.99;83.47
65058;HTU21D;51644;51.068;5.860;2022-09-09T05:27:25;16.95;83.65
65058;HTU21D;51644;51.068;5.860;2022-09-09T05:28:25;16.95;83.60
65058;HTU21D;51644;51.068;5.860;2022-09-09T05:29:26;16.89;83.88
65058;HTU21D;51644;51.068;5.860;2022-09-09T05:30:25;16.86;84.08
65058;HTU21D;51644;51.068;5.860;2022-09-09T05:31:25;16.87;84.02
65058;HTU21D;51644;51.068;5.860;2022-09-09T05:32:26;16.91;83.71
65058;HTU21D;51644;51.068;5.860;2022-09-09T05:33:25;16.92;83.68
65058;HTU21D;51644;51.068;5.860;2022-09-09T05:34:24;16.92;83.65
65058;HTU21D;51644;51.068;5.860;2022-09-09T05:35:23;16.87;83.86
65058;HTU21D;51644;51.068;5.860;2022-09-09T05:36:22;16.89;83.79
65058;HTU21D;51644;51.068;5.860;2022-09-09T05:37:25;16.89;83.68
65058;HTU21D;51644;51.068;5.860;2022-09-09T05:38:24;16.90;83.54
65058;HTU21D;51644;51.068;5.860;2022-09-09T05:39:23;16.94;83.49
65058;HTU21D;51644;51.068;5.860;2022-09-09T05:40:23;16.92;83.59
65058;HTU21D;51644;51.068;5.860;2022-09-09T05:41:22;16.92;83.61
65058;HTU21D;51644;51.068;5.860;2022-09-09T05:42:22;16.91;83.42
65058;HTU21D;51644;51.068;5.860;2022-09-09T05:43:20;16.93;83.33
65058;HTU21D;51644;51.068;5.860;2022-09-09T05:44:19;16.94;83.18
65058;HTU21D;51644;51.068;5.860;2022-09-09T05:45:18;16.94;83.32
65058;HTU21D;51644;51.068;5.860;2022-09-09T05:46:20;16.92;83.42
65058;HTU21D;51644;51.068;5.860;2022-09-09T05:47:20;16.92;83.36
65058;HTU21D;51644;51.068;5.860;2022-09-09T05:48:19;16.95;83.26
65058;HTU21D;51644;51.068;5.860;2022-09-09T05:49:18;16.99;83.13
65058;HTU21D;51644;51.068;5.860;2022-09-09T05:50:16;16.99;83.19
65058;HTU21D;51644;51.068;5.860;2022-09-09T05:51:18;16.95;83.18
65058;HTU21D;51644;51.068;5.860;2022-09-09T05:52:16;16.96;83.31
65058;HTU21D;51644;51.068;5.860;2022-09-09T05:53:15;16.93;83.45
65058;HTU21D;51644;51.068;5.860;2022-09-09T05:54:15;17.00;83.16
65058;HTU21D;51644;51.068;5.860;2022-09-09T05:55:17;17.02;82.86
65058;HTU21D;51644;51.068;5.860;2022-09-09T05:56:20;17.03;83.10
65058;HTU21D;51644;51.068;5.860;2022-09-09T05:57:20;17.06;82.85
65058;HTU21D;51644;51.068;5.860;2022-09-09T05:58:19;17.10;82.68
65058;HTU21D;51644;51.068;5.860;2022-09-09T05:59:17;17.13;82.43
65058;HTU21D;51644;51.068;5.860;2022-09-09T06:00:16;17.11;82.46
65058;HTU21D;51644;51.068;5.860;2022-09-09T06:01:30;17.10;81.99
65058;HTU21D;51644;51.068;5.860;2022-09-09T06:02:29;17.09;82.46
65058;HTU21D;51644;51.068;5.860;2022-09-09T06:03:31;17.13;82.26
65058;HTU21D;51644;51.068;5.860;2022-09-09T06:04:30;17.10;82.24
65058;HTU21D;51644;51.068;5.860;2022-09-09T06:05:29;17.14;82.10
65058;HTU21D;51644;51.068;5.860;2022-09-09T06:06:34;17.06;81.99
65058;HTU21D;51644;51.068;5.860;2022-09-09T06:07:36;17.04;82.28
65058;HTU21D;51644;51.068;5.860;2022-09-09T06:08:38;17.01;82.00
65058;HTU21D;51644;51.068;5.860;2022-09-09T06:09:37;16.96;81.88
65058;HTU21D;51644;51.068;5.860;2022-09-09T06:10:36;17.05;82.13
65058;HTU21D;51644;51.068;5.860;2022-09-09T06:11:37;17.03;82.16
65058;HTU21D;51644;51.068;5.860;2022-09-09T06:12:36;17.07;82.08
65058;HTU21D;51644;51.068;5.860;2022-09-09T06:13:35;17.13;82.03
65058;HTU21D;51644;51.068;5.860;2022-09-09T06:14:37;17.17;81.81
65058;HTU21D;51644;51.068;5.860;2022-09-09T06:15:36;17.18;81.55
65058;HTU21D;51644;51.068;5.860;2022-09-09T06:16:35;17.24;81.58
65058;HTU21D;51644;51.068;5.860;2022-09-09T06:17:37;17.33;81.32
65058;HTU21D;51644;51.068;5.860;2022-09-09T06:18:40;17.36;81.23
65058;HTU21D;51644;51.068;5.860;2022-09-09T06:19:39;17.37;80.79
65058;HTU21D;51644;51.068;5.860;2022-09-09T06:20:39;17.45;80.83
65058;HTU21D;51644;51.068;5.860;2022-09-09T06:21:37;17.50;80.52
65058;HTU21D;51644;51.068;5.860;2022-09-09T06:22:40;17.58;80.16
65058;HTU21D;51644;51.068;5.860;2022-09-09T06:23:39;17.66;80.09
65058;HTU21D;51644;51.068;5.860;2022-09-09T06:24:42;17.68;79.94
65058;HTU21D;51644;51.068;5.860;2022-09-09T06:25:41;17.74;78.92
65058;HTU21D;51644;51.068;5.860;2022-09-09T06:26:40;17.79;79.18
65058;HTU21D;51644;51.068;5.860;2022-09-09T06:27:39;17.83;79.09
65058;HTU21D;51644;51.068;5.860;2022-09-09T06:28:39;17.92;78.91
65058;HTU21D;51644;51.068;5.860;2022-09-09T06:29:38;17.95;78.74
65058;HTU21D;51644;51.068;5.860;2022-09-09T06:30:36;17.93;77.60
65058;HTU21D;51644;51.068;5.860;2022-09-09T06:31:36;17.94;77.85
65058;HTU21D;51644;51.068;5.860;2022-09-09T06:32:44;17.94;78.62
65058;HTU21D;51644;51.068;5.860;2022-09-09T06:33:43;17.97;78.60
65058;HTU21D;51644;51.068;5.860;2022-09-09T06:34:44;17.99;78.67
65058;HTU21D;51644;51.068;5.860;2022-09-09T06:35:51;17.99;78.43
65058;HTU21D;51644;51.068;5.860;2022-09-09T06:36:51;18.03;78.42
65058;HTU21D;51644;51.068;5.860;2022-09-09T06:37:50;17.98;78.56
65058;HTU21D;51644;51.068;5.860;2022-09-09T06:38:51;18.05;78.30
65058;HTU21D;51644;51.068;5.860;2022-09-09T06:39:50;17.97;78.09
65058;HTU21D;51644;51.068;5.860;2022-09-09T06:40:53;17.98;78.51
65058;HTU21D;51644;51.068;5.860;2022-09-09T06:41:53;18.05;78.25
65058;HTU21D;51644;51.068;5.860;2022-09-09T06:43:11;18.04;77.92
65058;HTU21D;51644;51.068;5.860;2022-09-09T06:44:14;18.03;78.14
65058;HTU21D;51644;51.068;5.860;2022-09-09T06:45:14;18.05;77.92
65058;HTU21D;51644;51.068;5.860;2022-09-09T06:46:23;18.08;77.84
65058;HTU21D;51644;51.068;5.860;2022-09-09T06:47:25;18.04;77.63
65058;HTU21D;51644;51.068;5.860;2022-09-09T06:48:26;18.05;77.73
65058;HTU21D;51644;51.068;5.860;2022-09-09T06:49:26;18.04;77.88
65058;HTU21D;51644;51.068;5.860;2022-09-09T06:50:24;18.08;77.89
65058;HTU21D;51644;51.068;5.860;2022-09-09T06:51:29;18.09;77.82
65058;HTU21D;51644;51.068;5.860;2022-09-09T06:52:27;18.02;77.62
65058;HTU21D;51644;51.068;5.860;2022-09-09T06:53:28;18.03;77.74
65058;HTU21D;51644;51.068;5.860;2022-09-09T06:54:27;18.05;77.35
65058;HTU21D;51644;51.068;5.860;2022-09-09T06:55:26;18.05;77.81
65058;HTU21D;51644;51.068;5.860;2022-09-09T06:56:45;18.09;77.53
65058;HTU21D;51644;51.068;5.860;2022-09-09T06:57:51;18.09;77.38
65058;HTU21D;51644;51.068;5.860;2022-09-09T06:58:57;18.09;77.07
65058;HTU21D;51644;51.068;5.860;2022-09-09T07:00:04;18.10;77.13
65058;HTU21D;51644;51.068;5.860;2022-09-09T07:01:04;18.09;76.50
65058;HTU21D;51644;51.068;5.860;2022-09-09T07:02:04;18.09;76.63
65058;HTU21D;51644;51.068;5.860;2022-09-09T07:03:03;18.11;76.60
65058;HTU21D;51644;51.068;5.860;2022-09-09T07:04:03;18.13;76.69
65058;HTU21D;51644;51.068;5.860;2022-09-09T07:05:05;18.20;76.31
65058;HTU21D;51644;51.068;5.860;2022-09-09T07:06:06;18.21;76.34
65058;HTU21D;51644;51.068;5.860;2022-09-09T07:07:05;18.27;76.36